Check out our new PWSWeather beta!
PWSweather.com
Personal Weather Stations
Station Observations
SD92115WX
El Cerrito Stoneybluff, San Diego, CA 92115

El Cerrito StoneybluffSan Diego, CA 92115

Lat: 32.754096, Lon: -117.066705

Elevation: 420

Station Type: Davis Vantage Vue

http://stoneybluff.com

High Low Average
Temperature 59.4°F15.2°C 47.5°F8.6°C 52.9°F11.6°C
Dew Point 49.1°F9.5°C 40.8°F4.9°C 44.8°F7.1°C
Winds 12.1 mph 19.5 kmh Calm Calm 3.0 mph WSW4.8 kmh WSW
Wind Gusts 19.0 mph30.6 kmh -- 6.0 mph9.7 kmh
Humidity 91% 52% 75%
Pressure 30.03 in1016.9 mb 29.94 in1013.9 mb -
Precipitation 0.07 in1.8 mm - -
Hour Temp Dew Point Humidity Winds Wind Gusts Pressure Precip Precip Rate Daily Precip Total
12:03 AM 52.5°F11.4°C 48.2°F9.0°C 85% Calm Calm -- 29.96 in1014.6 mb 0.00 in0.0 mm 0.00 in0.0 mm 0.00 in0.0 mm
12:08 AM 52.3°F11.3°C 48.2°F9.0°C 86% 0.4 mph SW0.6 kmh SW 1.1 mph1.8 kmh 29.96 in1014.6 mb 0.00 in0.0 mm 0.00 in0.0 mm 0.00 in0.0 mm
12:13 AM 52.3°F11.3°C 48.2°F9.0°C 86% 0.2 mph SW0.3 kmh SW 1.1 mph1.8 kmh 29.96 in1014.6 mb 0.00 in0.0 mm 0.00 in0.0 mm 0.00 in0.0 mm
12:18 AM 52.2°F11.2°C 48.0°F8.9°C 86% 0.2 mph W0.3 kmh W 1.1 mph1.8 kmh 29.96 in1014.6 mb 0.00 in0.0 mm 0.00 in0.0 mm 0.00 in0.0 mm
12:23 AM 52.2°F11.2°C 48.0°F8.9°C 86% Calm Calm 1.1 mph1.8 kmh 29.96 in1014.6 mb 0.00 in0.0 mm 0.00 in0.0 mm 0.00 in0.0 mm
12:28 AM 52.2°F11.2°C 48.0°F8.9°C 86% Calm Calm -- 29.96 in1014.6 mb 0.00 in0.0 mm 0.00 in0.0 mm 0.00 in0.0 mm
12:33 AM 52.0°F11.1°C 47.8°F8.8°C 86% Calm Calm -- 29.96 in1014.6 mb 0.00 in0.0 mm 0.00 in0.0 mm 0.00 in0.0 mm
12:38 AM 52.0°F11.1°C 47.8°F8.8°C 86% Calm Calm -- 29.97 in1014.9 mb 0.00 in0.0 mm 0.00 in0.0 mm 0.00 in0.0 mm
12:43 AM 51.8°F11.0°C 48.0°F8.9°C 87% Calm Calm -- 29.96 in1014.6 mb 0.00 in0.0 mm 0.00 in0.0 mm 0.00 in0.0 mm
12:48 AM 51.8°F11.0°C 48.0°F8.9°C 87% Calm Calm -- 29.96 in1014.6 mb 0.00 in0.0 mm 0.00 in0.0 mm 0.00 in0.0 mm
12:53 AM 51.6°F10.9°C 47.8°F8.8°C 87% Calm Calm -- 29.96 in1014.6 mb 0.00 in0.0 mm 0.00 in0.0 mm 0.00 in0.0 mm
12:58 AM 51.4°F10.8°C 47.7°F8.7°C 87% Calm Calm -- 29.96 in1014.6 mb 0.00 in0.0 mm 0.00 in0.0 mm 0.00 in0.0 mm
01:03 AM 51.1°F10.6°C 47.3°F8.5°C 87% Calm Calm -- 29.96 in1014.6 mb 0.00 in0.0 mm 0.00 in0.0 mm 0.00 in0.0 mm
01:08 AM 50.9°F10.5°C 47.5°F8.6°C 88% Calm Calm -- 29.96 in1014.6 mb 0.00 in0.0 mm 0.00 in0.0 mm 0.00 in0.0 mm
01:13 AM 50.7°F10.4°C 47.3°F8.5°C 88% Calm Calm -- 29.96 in1014.6 mb 0.00 in0.0 mm 0.00 in0.0 mm 0.00 in0.0 mm
01:18 AM 50.4°F10.2°C 46.9°F8.3°C 88% Calm Calm -- 29.95 in1014.2 mb 0.00 in0.0 mm 0.00 in0.0 mm 0.00 in0.0 mm
01:23 AM 50.2°F10.1°C 47.1°F8.4°C 89% Calm Calm -- 29.95 in1014.2 mb 0.00 in0.0 mm 0.00 in0.0 mm 0.00 in0.0 mm
01:28 AM 50.2°F10.1°C 47.1°F8.4°C 89% Calm Calm -- 29.95 in1014.2 mb 0.00 in0.0 mm 0.00 in0.0 mm 0.00 in0.0 mm
01:33 AM 50.2°F10.1°C 47.1°F8.4°C 89% Calm Calm -- 29.96 in1014.6 mb 0.00 in0.0 mm 0.00 in0.0 mm 0.00 in0.0 mm
01:38 AM 50.2°F10.1°C 47.3°F8.5°C 90% 0.2 mph SW0.3 kmh SW 1.1 mph1.8 kmh 29.95 in1014.2 mb 0.00 in0.0 mm 0.00 in0.0 mm 0.00 in0.0 mm
01:43 AM 50.4°F10.2°C 47.5°F8.6°C 90% 1.6 mph S2.6 kmh S 3.1 mph5.0 kmh 29.95 in1014.2 mb 0.00 in0.0 mm 0.00 in0.0 mm 0.00 in0.0 mm
01:48 AM 50.4°F10.2°C 47.5°F8.6°C 90% 1.3 mph SW2.1 kmh SW 4.3 mph6.9 kmh 29.95 in1014.2 mb 0.00 in0.0 mm 0.00 in0.0 mm 0.00 in0.0 mm
01:53 AM 50.4°F10.2°C 47.5°F8.6°C 90% 0.2 mph SSW0.3 kmh SSW 2.0 mph3.2 kmh 29.95 in1014.2 mb 0.00 in0.0 mm 0.00 in0.0 mm 0.00 in0.0 mm
01:58 AM 50.4°F10.2°C 47.5°F8.6°C 90% 0.7 mph SSW1.1 kmh SSW 2.0 mph3.2 kmh 29.95 in1014.2 mb 0.00 in0.0 mm 0.00 in0.0 mm 0.00 in0.0 mm
02:03 AM 50.4°F10.2°C 47.5°F8.6°C 90% 0.2 mph SW0.3 kmh SW 1.1 mph1.8 kmh 29.95 in1014.2 mb 0.00 in0.0 mm 0.00 in0.0 mm 0.00 in0.0 mm
02:08 AM 50.4°F10.2°C 47.5°F8.6°C 90% 0.2 mph WNW0.3 kmh WNW 2.0 mph3.2 kmh 29.96 in1014.6 mb 0.00 in0.0 mm 0.00 in0.0 mm 0.00 in0.0 mm
02:13 AM 50.4°F10.2°C 47.5°F8.6°C 90% 0.2 mph SW0.3 kmh SW 1.1 mph1.8 kmh 29.95 in1014.2 mb 0.00 in0.0 mm 0.00 in0.0 mm 0.00 in0.0 mm
02:18 AM 50.4°F10.2°C 47.5°F8.6°C 90% 1.1 mph SW1.8 kmh SW 2.0 mph3.2 kmh 29.95 in1014.2 mb 0.00 in0.0 mm 0.00 in0.0 mm 0.00 in0.0 mm
02:23 AM 50.4°F10.2°C 47.5°F8.6°C 90% 0.4 mph SW0.6 kmh SW 2.0 mph3.2 kmh 29.95 in1014.2 mb 0.00 in0.0 mm 0.00 in0.0 mm 0.00 in0.0 mm
02:28 AM 50.4°F10.2°C 47.5°F8.6°C 90% Calm Calm 1.1 mph1.8 kmh 29.95 in1014.2 mb 0.00 in0.0 mm 0.00 in0.0 mm 0.00 in0.0 mm
02:33 AM 50.4°F10.2°C 47.5°F8.6°C 90% 0.7 mph S1.1 kmh S 2.0 mph3.2 kmh 29.95 in1014.2 mb 0.00 in0.0 mm 0.00 in0.0 mm 0.00 in0.0 mm
02:38 AM 50.5°F10.3°C 48.0°F8.9°C 91% 0.2 mph WSW0.3 kmh WSW 4.3 mph6.9 kmh 29.95 in1014.2 mb 0.01 in0.3 mm 0.12 in3.0 mm 0.01 in0.3 mm
02:43 AM 50.7°F10.4°C 47.8°F8.8°C 90% 0.4 mph WNW0.6 kmh WNW 2.0 mph3.2 kmh 29.95 in1014.2 mb 0.01 in0.3 mm 0.00 in0.0 mm 0.01 in0.3 mm
02:48 AM 51.1°F10.6°C 48.2°F9.0°C 90% 3.1 mph W5.0 kmh W 5.4 mph8.7 kmh 29.95 in1014.2 mb 0.01 in0.3 mm 0.00 in0.0 mm 0.01 in0.3 mm
02:53 AM 51.4°F10.8°C 48.0°F8.9°C 88% 1.8 mph W2.9 kmh W 4.3 mph6.9 kmh 29.95 in1014.2 mb 0.01 in0.3 mm 0.00 in0.0 mm 0.01 in0.3 mm
02:58 AM 51.6°F10.9°C 47.8°F8.8°C 87% Calm Calm 3.1 mph5.0 kmh 29.95 in1014.2 mb 0.01 in0.3 mm 0.00 in0.0 mm 0.01 in0.3 mm
03:03 AM 51.8°F11.0°C 47.5°F8.6°C 85% 2.0 mph NW3.2 kmh NW 5.4 mph8.7 kmh 29.95 in1014.2 mb 0.01 in0.3 mm 0.00 in0.0 mm 0.01 in0.3 mm
03:08 AM 52.0°F11.1°C 47.7°F8.7°C 85% 2.0 mph WSW3.2 kmh WSW 6.3 mph10.1 kmh 29.94 in1013.9 mb 0.01 in0.3 mm 0.00 in0.0 mm 0.01 in0.3 mm
03:13 AM 51.8°F11.0°C 47.5°F8.6°C 85% 2.7 mph WNW4.3 kmh WNW 5.4 mph8.7 kmh 29.94 in1013.9 mb 0.01 in0.3 mm 0.00 in0.0 mm 0.01 in0.3 mm
03:18 AM 51.8°F11.0°C 47.5°F8.6°C 85% 2.9 mph NW4.7 kmh NW 6.3 mph10.1 kmh 29.94 in1013.9 mb 0.01 in0.3 mm 0.00 in0.0 mm 0.01 in0.3 mm
03:23 AM 51.8°F11.0°C 47.5°F8.6°C 85% 5.1 mph WNW8.2 kmh WNW 12.8 mph20.6 kmh 29.95 in1014.2 mb 0.02 in0.5 mm 0.12 in3.0 mm 0.02 in0.5 mm
03:28 AM 51.4°F10.8°C 47.5°F8.6°C 86% 4.7 mph WNW7.6 kmh WNW 12.8 mph20.6 kmh 29.95 in1014.2 mb 0.02 in0.5 mm 0.00 in0.0 mm 0.02 in0.5 mm
03:33 AM 51.3°F10.7°C 47.3°F8.5°C 86% 2.7 mph W4.3 kmh W 6.3 mph10.1 kmh 29.94 in1013.9 mb 0.02 in0.5 mm 0.00 in0.0 mm 0.02 in0.5 mm
03:38 AM 51.1°F10.6°C 47.1°F8.4°C 86% 3.4 mph SW5.5 kmh SW 8.5 mph13.7 kmh 29.94 in1013.9 mb 0.01 in0.3 mm 0.00 in0.0 mm 0.02 in0.5 mm
03:43 AM 50.9°F10.5°C 46.6°F8.1°C 85% 3.1 mph WNW5.0 kmh WNW 9.6 mph15.4 kmh 29.95 in1014.2 mb 0.01 in0.3 mm 0.00 in0.0 mm 0.02 in0.5 mm
03:48 AM 50.7°F10.4°C 46.4°F8.0°C 85% 1.6 mph W2.6 kmh W 5.4 mph8.7 kmh 29.94 in1013.9 mb 0.01 in0.3 mm 0.00 in0.0 mm 0.02 in0.5 mm
03:53 AM 50.7°F10.4°C 46.0°F7.8°C 84% 2.5 mph NW4.0 kmh NW 7.4 mph11.9 kmh 29.94 in1013.9 mb 0.01 in0.3 mm 0.00 in0.0 mm 0.02 in0.5 mm
03:58 AM 50.7°F10.4°C 45.7°F7.6°C 83% 2.5 mph NW4.0 kmh NW 5.4 mph8.7 kmh 29.94 in1013.9 mb 0.01 in0.3 mm 0.00 in0.0 mm 0.02 in0.5 mm
04:03 AM 50.9°F10.5°C 45.9°F7.7°C 83% 2.2 mph WNW3.5 kmh WNW 6.3 mph10.1 kmh 29.94 in1013.9 mb 0.01 in0.3 mm 0.00 in0.0 mm 0.02 in0.5 mm
04:08 AM 51.1°F10.6°C 46.0°F7.8°C 83% 3.1 mph NW5.0 kmh NW 6.3 mph10.1 kmh 29.94 in1013.9 mb 0.01 in0.3 mm 0.00 in0.0 mm 0.02 in0.5 mm
04:13 AM 51.1°F10.6°C 45.9°F7.7°C 82% 2.7 mph NW4.3 kmh NW 5.4 mph8.7 kmh 29.94 in1013.9 mb 0.01 in0.3 mm 0.00 in0.0 mm 0.02 in0.5 mm
04:18 AM 51.1°F10.6°C 45.9°F7.7°C 82% 2.0 mph WNW3.2 kmh WNW 4.3 mph6.9 kmh 29.94 in1013.9 mb 0.01 in0.3 mm 0.00 in0.0 mm 0.02 in0.5 mm
04:23 AM 51.1°F10.6°C 45.9°F7.7°C 82% 1.1 mph NW1.8 kmh NW 4.3 mph6.9 kmh 29.94 in1013.9 mb 0.00 in0.0 mm 0.00 in0.0 mm 0.02 in0.5 mm
04:28 AM 51.3°F10.7°C 46.0°F7.8°C 82% 1.3 mph NW2.1 kmh NW 3.1 mph5.0 kmh 29.95 in1014.2 mb 0.00 in0.0 mm 0.00 in0.0 mm 0.02 in0.5 mm
04:33 AM 51.1°F10.6°C 45.9°F7.7°C 82% 1.8 mph NW2.9 kmh NW 4.3 mph6.9 kmh 29.94 in1013.9 mb 0.00 in0.0 mm 0.00 in0.0 mm 0.02 in0.5 mm
04:38 AM 51.1°F10.6°C 45.9°F7.7°C 82% 2.2 mph WNW3.5 kmh WNW 5.4 mph8.7 kmh 29.95 in1014.2 mb 0.00 in0.0 mm 0.00 in0.0 mm 0.02 in0.5 mm
04:43 AM 51.1°F10.6°C 45.9°F7.7°C 82% 1.3 mph NE2.1 kmh NE 4.3 mph6.9 kmh 29.95 in1014.2 mb 0.00 in0.0 mm 0.00 in0.0 mm 0.02 in0.5 mm
04:48 AM 51.1°F10.6°C 45.9°F7.7°C 82% 2.9 mph NW4.7 kmh NW 6.3 mph10.1 kmh 29.95 in1014.2 mb 0.00 in0.0 mm 0.00 in0.0 mm 0.02 in0.5 mm
04:53 AM 51.1°F10.6°C 45.9°F7.7°C 82% 1.1 mph WNW1.8 kmh WNW 5.4 mph8.7 kmh 29.95 in1014.2 mb 0.00 in0.0 mm 0.00 in0.0 mm 0.02 in0.5 mm
04:58 AM 50.9°F10.5°C 45.7°F7.6°C 82% 1.1 mph NW1.8 kmh NW 3.1 mph5.0 kmh 29.95 in1014.2 mb 0.00 in0.0 mm 0.00 in0.0 mm 0.02 in0.5 mm
05:03 AM 50.7°F10.4°C 45.7°F7.6°C 83% Calm Calm 2.0 mph3.2 kmh 29.96 in1014.6 mb 0.00 in0.0 mm 0.00 in0.0 mm 0.02 in0.5 mm
05:08 AM 50.5°F10.3°C 45.5°F7.5°C 83% Calm Calm -- 29.96 in1014.6 mb 0.00 in0.0 mm 0.00 in0.0 mm 0.02 in0.5 mm
05:13 AM 50.4°F10.2°C 45.3°F7.4°C 83% Calm Calm 1.1 mph1.8 kmh 29.96 in1014.6 mb 0.00 in0.0 mm 0.00 in0.0 mm 0.02 in0.5 mm
05:18 AM 50.2°F10.1°C 45.1°F7.3°C 83% Calm Calm -- 29.96 in1014.6 mb 0.00 in0.0 mm 0.00 in0.0 mm 0.02 in0.5 mm
05:23 AM 49.8°F9.9°C 45.1°F7.3°C 84% Calm Calm -- 29.96 in1014.6 mb 0.00 in0.0 mm 0.00 in0.0 mm 0.02 in0.5 mm
05:28 AM 49.5°F9.7°C 44.8°F7.1°C 84% Calm Calm -- 29.96 in1014.6 mb 0.00 in0.0 mm 0.00 in0.0 mm 0.02 in0.5 mm
05:33 AM 48.9°F9.4°C 44.6°F7.0°C 85% Calm Calm -- 29.96 in1014.6 mb 0.00 in0.0 mm 0.00 in0.0 mm 0.02 in0.5 mm
05:38 AM 48.7°F9.3°C 44.8°F7.1°C 86% Calm Calm -- 29.97 in1014.9 mb 0.00 in0.0 mm 0.00 in0.0 mm 0.02 in0.5 mm
05:43 AM 48.4°F9.1°C 44.4°F6.9°C 86% Calm Calm -- 29.97 in1014.9 mb 0.00 in0.0 mm 0.00 in0.0 mm 0.02 in0.5 mm
05:48 AM 48.4°F9.1°C 44.8°F7.1°C 87% Calm Calm -- 29.97 in1014.9 mb 0.00 in0.0 mm 0.00 in0.0 mm 0.02 in0.5 mm
05:53 AM 48.4°F9.1°C 45.0°F7.2°C 88% Calm Calm -- 29.97 in1014.9 mb 0.00 in0.0 mm 0.00 in0.0 mm 0.02 in0.5 mm
05:58 AM 48.2°F9.0°C 44.8°F7.1°C 88% Calm Calm -- 29.97 in1014.9 mb 0.00 in0.0 mm 0.00 in0.0 mm 0.02 in0.5 mm
06:03 AM 48.2°F9.0°C 44.8°F7.1°C 88% Calm Calm -- 29.97 in1014.9 mb 0.00 in0.0 mm 0.00 in0.0 mm 0.02 in0.5 mm
06:08 AM 48.0°F8.9°C 44.6°F7.0°C 88% Calm Calm -- 29.97 in1014.9 mb 0.00 in0.0 mm 0.00 in0.0 mm 0.02 in0.5 mm
06:13 AM 48.0°F8.9°C 45.0°F7.2°C 89% Calm Calm -- 29.97 in1014.9 mb 0.00 in0.0 mm 0.00 in0.0 mm 0.02 in0.5 mm
06:18 AM 48.4°F9.1°C 45.3°F7.4°C 89% Calm Calm -- 29.97 in1014.9 mb 0.00 in0.0 mm 0.00 in0.0 mm 0.02 in0.5 mm
06:23 AM 48.4°F9.1°C 45.5°F7.5°C 90% Calm Calm -- 29.98 in1015.2 mb 0.00 in0.0 mm 0.00 in0.0 mm 0.02 in0.5 mm
06:28 AM 48.6°F9.2°C 45.7°F7.6°C 90% 4.3 mph NW6.9 kmh NW 10.5 mph16.9 kmh 29.98 in1015.2 mb 0.01 in0.3 mm 0.12 in3.0 mm 0.03 in0.8 mm
06:33 AM 48.9°F9.4°C 45.9°F7.7°C 89% 2.0 mph NW3.2 kmh NW 7.4 mph11.9 kmh 29.98 in1015.2 mb 0.01 in0.3 mm 0.00 in0.0 mm 0.03 in0.8 mm
06:38 AM 49.1°F9.5°C 46.0°F7.8°C 89% 1.3 mph NW2.1 kmh NW 4.3 mph6.9 kmh 29.98 in1015.2 mb 0.01 in0.3 mm 0.00 in0.0 mm 0.03 in0.8 mm
06:43 AM 49.1°F9.5°C 45.7°F7.6°C 88% 3.1 mph NNW5.0 kmh NNW 8.5 mph13.7 kmh 29.98 in1015.2 mb 0.01 in0.3 mm 0.00 in0.0 mm 0.03 in0.8 mm
06:48 AM 49.1°F9.5°C 45.7°F7.6°C 88% 2.0 mph NNW3.2 kmh NNW 4.3 mph6.9 kmh 29.98 in1015.2 mb 0.01 in0.3 mm 0.00 in0.0 mm 0.03 in0.8 mm
06:53 AM 49.1°F9.5°C 46.0°F7.8°C 89% 0.9 mph NNW1.4 kmh NNW 3.1 mph5.0 kmh 29.99 in1015.6 mb 0.01 in0.3 mm 0.00 in0.0 mm 0.03 in0.8 mm
06:58 AM 49.1°F9.5°C 46.0°F7.8°C 89% Calm Calm 2.0 mph3.2 kmh 29.99 in1015.6 mb 0.01 in0.3 mm 0.00 in0.0 mm 0.03 in0.8 mm
07:03 AM 49.3°F9.6°C 46.2°F7.9°C 89% Calm Calm 1.1 mph1.8 kmh 29.99 in1015.6 mb 0.01 in0.3 mm 0.00 in0.0 mm 0.03 in0.8 mm
07:08 AM 49.3°F9.6°C 46.2°F7.9°C 89% Calm Calm 1.1 mph1.8 kmh 29.99 in1015.6 mb 0.01 in0.3 mm 0.00 in0.0 mm 0.03 in0.8 mm
07:13 AM 49.3°F9.6°C 46.2°F7.9°C 89% 0.2 mph NW0.3 kmh NW 1.1 mph1.8 kmh 29.99 in1015.6 mb 0.01 in0.3 mm 0.00 in0.0 mm 0.03 in0.8 mm
07:18 AM 49.3°F9.6°C 46.2°F7.9°C 89% Calm Calm -- 29.99 in1015.6 mb 0.01 in0.3 mm 0.00 in0.0 mm 0.03 in0.8 mm
07:23 AM 49.5°F9.7°C 46.6°F8.1°C 90% Calm Calm -- 29.99 in1015.6 mb 0.01 in0.3 mm 0.00 in0.0 mm 0.03 in0.8 mm
07:28 AM 49.8°F9.9°C 46.9°F8.3°C 90% 0.2 mph ESE0.3 kmh ESE 1.1 mph1.8 kmh 29.99 in1015.6 mb 0.00 in0.0 mm 0.00 in0.0 mm 0.03 in0.8 mm
07:33 AM 50.4°F10.2°C 47.3°F8.5°C 89% Calm Calm 1.1 mph1.8 kmh 29.99 in1015.6 mb 0.00 in0.0 mm 0.00 in0.0 mm 0.03 in0.8 mm
07:38 AM 50.7°F10.4°C 47.7°F8.7°C 89% Calm Calm 2.0 mph3.2 kmh 30.00 in1015.9 mb 0.00 in0.0 mm 0.00 in0.0 mm 0.03 in0.8 mm
07:43 AM 50.9°F10.5°C 47.5°F8.6°C 88% Calm Calm -- 30.00 in1015.9 mb 0.00 in0.0 mm 0.00 in0.0 mm 0.03 in0.8 mm
07:48 AM 51.1°F10.6°C 47.7°F8.7°C 88% Calm Calm -- 30.00 in1015.9 mb 0.00 in0.0 mm 0.00 in0.0 mm 0.03 in0.8 mm
07:53 AM 51.4°F10.8°C 48.0°F8.9°C 88% 0.4 mph WNW0.6 kmh WNW 1.1 mph1.8 kmh 30.00 in1015.9 mb 0.00 in0.0 mm 0.00 in0.0 mm 0.03 in0.8 mm
07:58 AM 51.3°F10.7°C 47.5°F8.6°C 87% 0.7 mph NW1.1 kmh NW 2.0 mph3.2 kmh 30.00 in1015.9 mb 0.00 in0.0 mm 0.00 in0.0 mm 0.03 in0.8 mm
08:03 AM 51.3°F10.7°C 47.3°F8.5°C 86% Calm Calm 1.1 mph1.8 kmh 30.01 in1016.3 mb 0.00 in0.0 mm 0.00 in0.0 mm 0.03 in0.8 mm
08:08 AM 51.4°F10.8°C 47.5°F8.6°C 86% 0.9 mph NE1.4 kmh NE 2.0 mph3.2 kmh 30.01 in1016.3 mb 0.00 in0.0 mm 0.00 in0.0 mm 0.03 in0.8 mm
08:13 AM 51.3°F10.7°C 47.3°F8.5°C 86% 1.3 mph N2.1 kmh N 3.1 mph5.0 kmh 30.01 in1016.3 mb 0.03 in0.8 mm 0.36 in9.1 mm 0.06 in1.5 mm
08:18 AM 50.9°F10.5°C 46.6°F8.1°C 85% 4.5 mph NW7.2 kmh NW 7.4 mph11.9 kmh 30.01 in1016.3 mb 0.03 in0.8 mm 0.00 in0.0 mm 0.06 in1.5 mm
08:23 AM 50.4°F10.2°C 46.6°F8.1°C 87% 2.0 mph E3.2 kmh E 4.3 mph6.9 kmh 30.02 in1016.6 mb 0.04 in1.0 mm 0.12 in3.0 mm 0.07 in1.8 mm
08:28 AM 50.2°F10.1°C 46.8°F8.2°C 88% 0.4 mph W0.6 kmh W 4.3 mph6.9 kmh 30.01 in1016.3 mb 0.04 in1.0 mm 0.00 in0.0 mm 0.07 in1.8 mm
08:33 AM 50.2°F10.1°C 47.1°F8.4°C 89% 0.9 mph NW1.4 kmh NW 4.3 mph6.9 kmh 30.01 in1016.3 mb 0.04 in1.0 mm 0.00 in0.0 mm 0.07 in1.8 mm
08:38 AM 50.4°F10.2°C 47.3°F8.5°C 89% 0.2 mph NE0.3 kmh NE 4.3 mph6.9 kmh 30.01 in1016.3 mb 0.04 in1.0 mm 0.00 in0.0 mm 0.07 in1.8 mm
08:43 AM 50.7°F10.4°C 47.7°F8.7°C 89% Calm Calm 1.1 mph1.8 kmh 30.01 in1016.3 mb 0.04 in1.0 mm 0.00 in0.0 mm 0.07 in1.8 mm
08:48 AM 51.3°F10.7°C 48.2°F9.0°C 89% 0.7 mph WSW1.1 kmh WSW 3.1 mph5.0 kmh 30.01 in1016.3 mb 0.04 in1.0 mm 0.00 in0.0 mm 0.07 in1.8 mm
08:53 AM 51.6°F10.9°C 48.2°F9.0°C 88% 0.7 mph WSW1.1 kmh WSW 3.1 mph5.0 kmh 30.01 in1016.3 mb 0.04 in1.0 mm 0.00 in0.0 mm 0.07 in1.8 mm
08:58 AM 51.8°F11.0°C 48.0°F8.9°C 87% 0.7 mph W1.1 kmh W 4.3 mph6.9 kmh 30.01 in1016.3 mb 0.04 in1.0 mm 0.00 in0.0 mm 0.07 in1.8 mm
09:03 AM 52.2°F11.2°C 48.0°F8.9°C 86% 1.6 mph NW2.6 kmh NW 4.3 mph6.9 kmh 30.01 in1016.3 mb 0.04 in1.0 mm 0.00 in0.0 mm 0.07 in1.8 mm
09:08 AM 52.7°F11.5°C 48.4°F9.1°C 85% 1.3 mph W2.1 kmh W 5.4 mph8.7 kmh 30.01 in1016.3 mb 0.04 in1.0 mm 0.00 in0.0 mm 0.07 in1.8 mm
09:13 AM 53.4°F11.9°C 49.1°F9.5°C 85% 3.4 mph NW5.5 kmh NW 6.3 mph10.1 kmh 30.01 in1016.3 mb 0.01 in0.3 mm 0.00 in0.0 mm 0.07 in1.8 mm
09:18 AM 53.8°F12.1°C 48.7°F9.3°C 83% 1.1 mph NW1.8 kmh NW 4.3 mph6.9 kmh 30.01 in1016.3 mb 0.01 in0.3 mm 0.00 in0.0 mm 0.07 in1.8 mm
09:23 AM 54.0°F12.2°C 48.2°F9.0°C 81% 4.9 mph W7.9 kmh W 8.5 mph13.7 kmh 30.01 in1016.3 mb 0.00 in0.0 mm 0.00 in0.0 mm 0.07 in1.8 mm
09:28 AM 54.3°F12.4°C 48.6°F9.2°C 81% 2.0 mph NW3.2 kmh NW 9.6 mph15.4 kmh 30.01 in1016.3 mb 0.00 in0.0 mm 0.00 in0.0 mm 0.07 in1.8 mm
09:33 AM 54.7°F12.6°C 48.6°F9.2°C 80% 4.3 mph NW6.9 kmh NW 8.5 mph13.7 kmh 30.01 in1016.3 mb 0.00 in0.0 mm 0.00 in0.0 mm 0.07 in1.8 mm
09:38 AM 54.9°F12.7°C 47.8°F8.8°C 77% 8.1 mph WSW13.0 kmh WSW 13.9 mph22.4 kmh 30.02 in1016.6 mb 0.00 in0.0 mm 0.00 in0.0 mm 0.07 in1.8 mm
09:43 AM 54.9°F12.7°C 47.8°F8.8°C 77% 5.8 mph WNW9.3 kmh WNW 10.5 mph16.9 kmh 30.02 in1016.6 mb 0.00 in0.0 mm 0.00 in0.0 mm 0.07 in1.8 mm
09:48 AM 54.7°F12.6°C 47.7°F8.7°C 77% 4.0 mph NW6.4 kmh NW 9.6 mph15.4 kmh 30.02 in1016.6 mb 0.00 in0.0 mm 0.00 in0.0 mm 0.07 in1.8 mm
09:53 AM 54.7°F12.6°C 48.0°F8.9°C 78% 3.1 mph WNW5.0 kmh WNW 7.4 mph11.9 kmh 30.02 in1016.6 mb 0.00 in0.0 mm 0.00 in0.0 mm 0.07 in1.8 mm
09:58 AM 54.7°F12.6°C 46.9°F8.3°C 75% 3.6 mph NW5.8 kmh NW 8.5 mph13.7 kmh 30.02 in1016.6 mb 0.00 in0.0 mm 0.00 in0.0 mm 0.07 in1.8 mm
10:03 AM 54.7°F12.6°C 46.9°F8.3°C 75% 3.6 mph WSW5.8 kmh WSW 9.6 mph15.4 kmh 30.02 in1016.6 mb 0.00 in0.0 mm 0.00 in0.0 mm 0.07 in1.8 mm
10:08 AM 54.9°F12.7°C 46.4°F8.0°C 73% 6.0 mph WSW9.7 kmh WSW 9.6 mph15.4 kmh 30.03 in1016.9 mb 0.00 in0.0 mm 0.00 in0.0 mm 0.07 in1.8 mm
10:13 AM 55.4°F13.0°C 46.9°F8.3°C 73% 5.1 mph NW8.2 kmh NW 12.8 mph20.6 kmh 30.03 in1016.9 mb 0.00 in0.0 mm 0.00 in0.0 mm 0.07 in1.8 mm
10:18 AM 55.6°F13.1°C 46.4°F8.0°C 71% 5.1 mph SW8.2 kmh SW 12.8 mph20.6 kmh 30.03 in1016.9 mb 0.00 in0.0 mm 0.00 in0.0 mm 0.07 in1.8 mm
10:23 AM 55.8°F13.2°C 46.0°F7.8°C 70% 4.7 mph WNW7.6 kmh WNW 12.8 mph20.6 kmh 30.02 in1016.6 mb 0.00 in0.0 mm 0.00 in0.0 mm 0.07 in1.8 mm
10:28 AM 56.3°F13.5°C 46.6°F8.1°C 70% 6.3 mph SW10.1 kmh SW 13.9 mph22.4 kmh 30.03 in1016.9 mb 0.00 in0.0 mm 0.00 in0.0 mm 0.07 in1.8 mm
10:33 AM 56.5°F13.6°C 46.4°F8.0°C 69% 6.3 mph SW10.1 kmh SW 10.5 mph16.9 kmh 30.02 in1016.6 mb 0.00 in0.0 mm 0.00 in0.0 mm 0.07 in1.8 mm
10:38 AM 56.3°F13.5°C 46.2°F7.9°C 69% 4.7 mph W7.6 kmh W 9.6 mph15.4 kmh 30.03 in1016.9 mb 0.00 in0.0 mm 0.00 in0.0 mm 0.07 in1.8 mm
10:43 AM 56.1°F13.4°C 45.7°F7.6°C 68% 4.3 mph W6.9 kmh W 8.5 mph13.7 kmh 30.03 in1016.9 mb 0.00 in0.0 mm 0.00 in0.0 mm 0.07 in1.8 mm
10:48 AM 56.5°F13.6°C 45.7°F7.6°C 67% 7.4 mph N11.9 kmh N 11.6 mph18.7 kmh 30.03 in1016.9 mb 0.00 in0.0 mm 0.00 in0.0 mm 0.07 in1.8 mm
10:53 AM 56.3°F13.5°C 45.1°F7.3°C 66% 7.4 mph N11.9 kmh N 13.9 mph22.4 kmh 30.03 in1016.9 mb 0.00 in0.0 mm 0.00 in0.0 mm 0.07 in1.8 mm
10:58 AM 56.5°F13.6°C 46.0°F7.8°C 68% 3.4 mph NNW5.5 kmh NNW 8.5 mph13.7 kmh 30.02 in1016.6 mb 0.00 in0.0 mm 0.00 in0.0 mm 0.07 in1.8 mm
11:03 AM 56.8°F13.8°C 45.7°F7.6°C 66% 3.4 mph WSW5.5 kmh WSW 11.6 mph18.7 kmh 30.02 in1016.6 mb 0.00 in0.0 mm 0.00 in0.0 mm 0.07 in1.8 mm
11:08 AM 56.8°F13.8°C 44.8°F7.1°C 64% 2.9 mph WSW4.7 kmh WSW 10.5 mph16.9 kmh 30.02 in1016.6 mb 0.00 in0.0 mm 0.00 in0.0 mm 0.07 in1.8 mm
11:13 AM 57.0°F13.9°C 45.0°F7.2°C 64% 4.9 mph SW7.9 kmh SW 11.6 mph18.7 kmh 30.02 in1016.6 mb 0.00 in0.0 mm 0.00 in0.0 mm 0.07 in1.8 mm
11:18 AM 57.0°F13.9°C 44.6°F7.0°C 63% 6.7 mph WSW10.8 kmh WSW 13.9 mph22.4 kmh 30.01 in1016.3 mb 0.00 in0.0 mm 0.00 in0.0 mm 0.07 in1.8 mm
11:23 AM 57.4°F14.1°C 44.4°F6.9°C 62% 8.7 mph WNW14.0 kmh WNW 15.9 mph25.6 kmh 30.01 in1016.3 mb 0.00 in0.0 mm 0.00 in0.0 mm 0.07 in1.8 mm
11:28 AM 57.9°F14.4°C 45.9°F7.7°C 64% 5.6 mph WNW9.0 kmh WNW 11.6 mph18.7 kmh 30.00 in1015.9 mb 0.00 in0.0 mm 0.00 in0.0 mm 0.07 in1.8 mm
11:33 AM 58.3°F14.6°C 44.4°F6.9°C 60% 6.7 mph SW10.8 kmh SW 14.8 mph23.8 kmh 30.00 in1015.9 mb 0.00 in0.0 mm 0.00 in0.0 mm 0.07 in1.8 mm
11:38 AM 58.6°F14.8°C 44.4°F6.9°C 59% 6.7 mph NW10.8 kmh NW 17.0 mph27.4 kmh 30.00 in1015.9 mb 0.00 in0.0 mm 0.00 in0.0 mm 0.07 in1.8 mm
11:43 AM 58.5°F14.7°C 44.2°F6.8°C 59% 7.8 mph WSW12.6 kmh WSW 13.9 mph22.4 kmh 29.99 in1015.6 mb 0.00 in0.0 mm 0.00 in0.0 mm 0.07 in1.8 mm
11:48 AM 58.8°F14.9°C 44.1°F6.7°C 58% 5.4 mph W8.7 kmh W 14.8 mph23.8 kmh 29.99 in1015.6 mb 0.00 in0.0 mm 0.00 in0.0 mm 0.07 in1.8 mm
11:53 AM 58.6°F14.8°C 43.9°F6.6°C 58% 7.4 mph SW11.9 kmh SW 15.9 mph25.6 kmh 29.99 in1015.6 mb 0.00 in0.0 mm 0.00 in0.0 mm 0.07 in1.8 mm
11:58 AM 58.6°F14.8°C 43.9°F6.6°C 58% 6.5 mph NW10.5 kmh NW 17.0 mph27.4 kmh 29.99 in1015.6 mb 0.00 in0.0 mm 0.00 in0.0 mm 0.07 in1.8 mm
12:03 PM 58.8°F14.9°C 44.1°F6.7°C 58% 7.2 mph WNW11.6 kmh WNW 15.9 mph25.6 kmh 29.99 in1015.6 mb 0.00 in0.0 mm 0.00 in0.0 mm 0.07 in1.8 mm
12:08 PM 59.2°F15.1°C 45.3°F7.4°C 60% 7.6 mph WSW12.2 kmh WSW 11.6 mph18.7 kmh 29.99 in1015.6 mb 0.00 in0.0 mm 0.00 in0.0 mm 0.07 in1.8 mm
12:13 PM 58.6°F14.8°C 44.4°F6.9°C 59% 6.7 mph NW10.8 kmh NW 15.9 mph25.6 kmh 29.99 in1015.6 mb 0.00 in0.0 mm 0.00 in0.0 mm 0.07 in1.8 mm
12:18 PM 57.9°F14.4°C 45.0°F7.2°C 62% 6.3 mph SW10.1 kmh SW 19.0 mph30.6 kmh 29.99 in1015.6 mb 0.00 in0.0 mm 0.00 in0.0 mm 0.07 in1.8 mm
12:23 PM 57.9°F14.4°C 45.3°F7.4°C 63% 9.2 mph WNW14.8 kmh WNW 17.0 mph27.4 kmh 30.00 in1015.9 mb 0.00 in0.0 mm 0.00 in0.0 mm 0.07 in1.8 mm
12:28 PM 57.2°F14.0°C 44.2°F6.8°C 62% 7.8 mph SW12.6 kmh SW 17.0 mph27.4 kmh 30.00 in1015.9 mb 0.00 in0.0 mm 0.00 in0.0 mm 0.07 in1.8 mm
12:33 PM 57.2°F14.0°C 44.8°F7.1°C 63% 8.7 mph NW14.0 kmh NW 13.9 mph22.4 kmh 30.00 in1015.9 mb 0.00 in0.0 mm 0.00 in0.0 mm 0.07 in1.8 mm
12:38 PM 57.4°F14.1°C 45.0°F7.2°C 63% 6.3 mph WSW10.1 kmh WSW 17.0 mph27.4 kmh 30.00 in1015.9 mb 0.00 in0.0 mm 0.00 in0.0 mm 0.07 in1.8 mm
12:43 PM 57.2°F14.0°C 44.2°F6.8°C 62% 8.1 mph SW13.0 kmh SW 12.8 mph20.6 kmh 29.99 in1015.6 mb 0.00 in0.0 mm 0.00 in0.0 mm 0.07 in1.8 mm
12:48 PM 57.6°F14.2°C 44.6°F7.0°C 62% 4.9 mph WSW7.9 kmh WSW 14.8 mph23.8 kmh 29.99 in1015.6 mb 0.00 in0.0 mm 0.00 in0.0 mm 0.07 in1.8 mm
12:53 PM 57.9°F14.4°C 45.0°F7.2°C 62% 6.5 mph WSW10.5 kmh WSW 11.6 mph18.7 kmh 29.99 in1015.6 mb 0.00 in0.0 mm 0.00 in0.0 mm 0.07 in1.8 mm
12:58 PM 58.1°F14.5°C 45.1°F7.3°C 62% 5.6 mph SW9.0 kmh SW 11.6 mph18.7 kmh 29.99 in1015.6 mb 0.00 in0.0 mm 0.00 in0.0 mm 0.07 in1.8 mm
01:03 PM 57.9°F14.4°C 44.1°F6.7°C 60% 6.5 mph NW10.5 kmh NW 14.8 mph23.8 kmh 29.98 in1015.2 mb 0.00 in0.0 mm 0.00 in0.0 mm 0.07 in1.8 mm
01:08 PM 57.9°F14.4°C 44.6°F7.0°C 61% 6.7 mph W10.8 kmh W 14.8 mph23.8 kmh 29.98 in1015.2 mb 0.00 in0.0 mm 0.00 in0.0 mm 0.07 in1.8 mm
01:13 PM 57.9°F14.4°C 44.6°F7.0°C 61% 6.0 mph WSW9.7 kmh WSW 14.8 mph23.8 kmh 29.98 in1015.2 mb 0.00 in0.0 mm 0.00 in0.0 mm 0.07 in1.8 mm
01:18 PM 58.3°F14.6°C 44.1°F6.7°C 59% 6.3 mph W10.1 kmh W 13.9 mph22.4 kmh 29.98 in1015.2 mb 0.00 in0.0 mm 0.00 in0.0 mm 0.07 in1.8 mm
01:23 PM 58.5°F14.7°C 45.1°F7.3°C 61% 7.6 mph W12.2 kmh W 13.9 mph22.4 kmh 29.98 in1015.2 mb 0.00 in0.0 mm 0.00 in0.0 mm 0.07 in1.8 mm
01:28 PM 58.5°F14.7°C 44.6°F7.0°C 60% 8.7 mph SW14.0 kmh SW 19.0 mph30.6 kmh 29.98 in1015.2 mb 0.00 in0.0 mm 0.00 in0.0 mm 0.07 in1.8 mm
01:33 PM 58.8°F14.9°C 43.7°F6.5°C 57% 9.8 mph WSW15.8 kmh WSW 15.9 mph25.6 kmh 29.98 in1015.2 mb 0.00 in0.0 mm 0.00 in0.0 mm 0.07 in1.8 mm
01:38 PM 57.9°F14.4°C 43.7°F6.5°C 59% 6.3 mph NW10.1 kmh NW 15.9 mph25.6 kmh 29.99 in1015.6 mb 0.00 in0.0 mm 0.00 in0.0 mm 0.07 in1.8 mm
01:43 PM 57.4°F14.1°C 43.2°F6.2°C 59% 12.1 mph W19.5 kmh W 18.1 mph29.1 kmh 29.99 in1015.6 mb 0.00 in0.0 mm 0.00 in0.0 mm 0.07 in1.8 mm
01:48 PM 57.4°F14.1°C 43.2°F6.2°C 59% 5.8 mph SW9.3 kmh SW 15.9 mph25.6 kmh 29.99 in1015.6 mb 0.00 in0.0 mm 0.00 in0.0 mm 0.07 in1.8 mm
01:53 PM 57.2°F14.0°C 42.6°F5.9°C 58% 9.8 mph W15.8 kmh W 15.9 mph25.6 kmh 30.00 in1015.9 mb 0.00 in0.0 mm 0.00 in0.0 mm 0.07 in1.8 mm
01:58 PM 57.0°F13.9°C 43.3°F6.3°C 60% 9.6 mph W15.4 kmh W 15.9 mph25.6 kmh 29.99 in1015.6 mb 0.00 in0.0 mm 0.00 in0.0 mm 0.07 in1.8 mm
02:03 PM 57.0°F13.9°C 42.4°F5.8°C 58% 7.6 mph WSW12.2 kmh WSW 12.8 mph20.6 kmh 29.99 in1015.6 mb 0.00 in0.0 mm 0.00 in0.0 mm 0.07 in1.8 mm
02:08 PM 57.2°F14.0°C 41.7°F5.4°C 56% 7.2 mph WNW11.6 kmh WNW 11.6 mph18.7 kmh 29.99 in1015.6 mb 0.00 in0.0 mm 0.00 in0.0 mm 0.07 in1.8 mm
02:13 PM 56.8°F13.8°C 41.7°F5.4°C 57% 8.7 mph WNW14.0 kmh WNW 14.8 mph23.8 kmh 29.99 in1015.6 mb 0.00 in0.0 mm 0.00 in0.0 mm 0.07 in1.8 mm
02:18 PM 56.7°F13.7°C 42.4°F5.8°C 59% 6.0 mph SW9.7 kmh SW 15.9 mph25.6 kmh 29.99 in1015.6 mb 0.00 in0.0 mm 0.00 in0.0 mm 0.07 in1.8 mm
02:23 PM 57.0°F13.9°C 43.3°F6.3°C 60% 5.6 mph NW9.0 kmh NW 12.8 mph20.6 kmh 29.98 in1015.2 mb 0.00 in0.0 mm 0.00 in0.0 mm 0.07 in1.8 mm
02:28 PM 57.7°F14.3°C 43.9°F6.6°C 60% 7.2 mph NW11.6 kmh NW 15.9 mph25.6 kmh 29.98 in1015.2 mb 0.00 in0.0 mm 0.00 in0.0 mm 0.07 in1.8 mm
02:33 PM 58.5°F14.7°C 43.3°F6.3°C 57% 7.2 mph WSW11.6 kmh WSW 15.9 mph25.6 kmh 29.99 in1015.6 mb 0.00 in0.0 mm 0.00 in0.0 mm 0.07 in1.8 mm
02:38 PM 58.5°F14.7°C 41.9°F5.5°C 54% 7.6 mph WSW12.2 kmh WSW 13.9 mph22.4 kmh 29.99 in1015.6 mb 0.00 in0.0 mm 0.00 in0.0 mm 0.07 in1.8 mm
02:43 PM 57.9°F14.4°C 41.9°F5.5°C 55% 5.6 mph WSW9.0 kmh WSW 13.9 mph22.4 kmh 29.99 in1015.6 mb 0.00 in0.0 mm 0.00 in0.0 mm 0.07 in1.8 mm
02:48 PM 58.3°F14.6°C 41.2°F5.1°C 53% 6.7 mph WNW10.8 kmh WNW 10.5 mph16.9 kmh 29.99 in1015.6 mb 0.00 in0.0 mm 0.00 in0.0 mm 0.07 in1.8 mm
02:53 PM 58.1°F14.5°C 42.1°F5.6°C 55% 6.9 mph NW11.1 kmh NW 13.9 mph22.4 kmh 29.99 in1015.6 mb 0.00 in0.0 mm 0.00 in0.0 mm 0.07 in1.8 mm
02:58 PM 58.6°F14.8°C 42.1°F5.6°C 54% 6.5 mph SSW10.5 kmh SSW 12.8 mph20.6 kmh 29.99 in1015.6 mb 0.00 in0.0 mm 0.00 in0.0 mm 0.07 in1.8 mm
03:03 PM 58.3°F14.6°C 40.8°F4.9°C 52% 7.6 mph WSW12.2 kmh WSW 18.1 mph29.1 kmh 29.99 in1015.6 mb 0.00 in0.0 mm 0.00 in0.0 mm 0.07 in1.8 mm
03:08 PM 58.3°F14.6°C 42.3°F5.7°C 55% 5.4 mph WSW8.7 kmh WSW 10.5 mph16.9 kmh 29.99 in1015.6 mb 0.00 in0.0 mm 0.00 in0.0 mm 0.07 in1.8 mm
03:13 PM 59.4°F15.2°C 43.2°F6.2°C 55% 5.1 mph NW8.2 kmh NW 10.5 mph16.9 kmh 29.99 in1015.6 mb 0.00 in0.0 mm 0.00 in0.0 mm 0.07 in1.8 mm
03:18 PM 59.0°F15.0°C 42.4°F5.8°C 54% 6.5 mph SW10.5 kmh SW 12.8 mph20.6 kmh 29.99 in1015.6 mb 0.00 in0.0 mm 0.00 in0.0 mm 0.07 in1.8 mm
03:23 PM 58.6°F14.8°C 42.1°F5.6°C 54% 7.2 mph WSW11.6 kmh WSW 14.8 mph23.8 kmh 29.99 in1015.6 mb 0.00 in0.0 mm 0.00 in0.0 mm 0.07 in1.8 mm
03:28 PM 57.9°F14.4°C 41.4°F5.2°C 54% 7.2 mph SW11.6 kmh SW 14.8 mph23.8 kmh 29.99 in1015.6 mb 0.00 in0.0 mm 0.00 in0.0 mm 0.07 in1.8 mm
03:33 PM 57.6°F14.2°C 41.5°F5.3°C 55% 5.8 mph WNW9.3 kmh WNW 13.9 mph22.4 kmh 29.99 in1015.6 mb 0.00 in0.0 mm 0.00 in0.0 mm 0.07 in1.8 mm
03:38 PM 57.6°F14.2°C 42.4°F5.8°C 57% 6.0 mph WNW9.7 kmh WNW 13.9 mph22.4 kmh 29.99 in1015.6 mb 0.00 in0.0 mm 0.00 in0.0 mm 0.07 in1.8 mm
03:43 PM 57.0°F13.9°C 42.8°F6.0°C 59% 7.6 mph SW12.2 kmh SW 13.9 mph22.4 kmh 29.99 in1015.6 mb 0.00 in0.0 mm 0.00 in0.0 mm 0.07 in1.8 mm
03:48 PM 56.7°F13.7°C 42.1°F5.6°C 58% 4.0 mph WNW6.4 kmh WNW 12.8 mph20.6 kmh 30.00 in1015.9 mb 0.00 in0.0 mm 0.00 in0.0 mm 0.07 in1.8 mm
03:53 PM 56.8°F13.8°C 41.7°F5.4°C 57% 7.2 mph NW11.6 kmh NW 12.8 mph20.6 kmh 30.00 in1015.9 mb 0.00 in0.0 mm 0.00 in0.0 mm 0.07 in1.8 mm
03:58 PM 56.7°F13.7°C 43.0°F6.1°C 60% 4.3 mph NW6.9 kmh NW 13.9 mph22.4 kmh 30.00 in1015.9 mb 0.00 in0.0 mm 0.00 in0.0 mm 0.07 in1.8 mm
04:03 PM 56.5°F13.6°C 42.3°F5.7°C 59% 5.4 mph WNW8.7 kmh WNW 13.9 mph22.4 kmh 30.00 in1015.9 mb 0.00 in0.0 mm 0.00 in0.0 mm 0.07 in1.8 mm
04:08 PM 56.7°F13.7°C 43.3°F6.3°C 61% 8.3 mph WNW13.4 kmh WNW 15.9 mph25.6 kmh 30.00 in1015.9 mb 0.00 in0.0 mm 0.00 in0.0 mm 0.07 in1.8 mm
04:13 PM 56.5°F13.6°C 43.2°F6.2°C 61% 7.6 mph N12.2 kmh N 12.8 mph20.6 kmh 30.00 in1015.9 mb 0.00 in0.0 mm 0.00 in0.0 mm 0.07 in1.8 mm
04:18 PM 57.0°F13.9°C 41.9°F5.5°C 57% 5.6 mph W9.0 kmh W 13.9 mph22.4 kmh 30.00 in1015.9 mb 0.00 in0.0 mm 0.00 in0.0 mm 0.07 in1.8 mm
04:23 PM 57.2°F14.0°C 42.6°F5.9°C 58% 6.7 mph SW10.8 kmh SW 12.8 mph20.6 kmh 30.00 in1015.9 mb 0.00 in0.0 mm 0.00 in0.0 mm 0.07 in1.8 mm
04:28 PM 57.6°F14.2°C 43.7°F6.5°C 60% 5.1 mph WSW8.2 kmh WSW 10.5 mph16.9 kmh 29.99 in1015.6 mb 0.00 in0.0 mm 0.00 in0.0 mm 0.07 in1.8 mm
04:33 PM 57.4°F14.1°C 43.7°F6.5°C 60% 5.4 mph WNW8.7 kmh WNW 13.9 mph22.4 kmh 29.99 in1015.6 mb 0.00 in0.0 mm 0.00 in0.0 mm 0.07 in1.8 mm
04:38 PM 57.0°F13.9°C 42.8°F6.0°C 59% 7.8 mph SW12.6 kmh SW 14.8 mph23.8 kmh 29.98 in1015.2 mb 0.00 in0.0 mm 0.00 in0.0 mm 0.07 in1.8 mm
04:43 PM 56.7°F13.7°C 43.0°F6.1°C 60% 6.0 mph W9.7 kmh W 11.6 mph18.7 kmh 29.99 in1015.6 mb 0.00 in0.0 mm 0.00 in0.0 mm 0.07 in1.8 mm
04:48 PM 56.7°F13.7°C 42.4°F5.8°C 59% 6.3 mph WSW10.1 kmh WSW 11.6 mph18.7 kmh 29.99 in1015.6 mb 0.00 in0.0 mm 0.00 in0.0 mm 0.07 in1.8 mm
04:53 PM 56.7°F13.7°C 41.5°F5.3°C 57% 2.5 mph NW4.0 kmh NW 11.6 mph18.7 kmh 29.99 in1015.6 mb 0.00 in0.0 mm 0.00 in0.0 mm 0.07 in1.8 mm
04:58 PM 56.3°F13.5°C 42.6°F5.9°C 60% 6.9 mph WNW11.1 kmh WNW 12.8 mph20.6 kmh 29.99 in1015.6 mb 0.00 in0.0 mm 0.00 in0.0 mm 0.07 in1.8 mm
05:03 PM 56.3°F13.5°C 42.6°F5.9°C 60% 5.4 mph NW8.7 kmh NW 8.5 mph13.7 kmh 29.99 in1015.6 mb 0.00 in0.0 mm 0.00 in0.0 mm 0.07 in1.8 mm
05:08 PM 56.1°F13.4°C 42.4°F5.8°C 60% 5.1 mph W8.2 kmh W 11.6 mph18.7 kmh 29.99 in1015.6 mb 0.00 in0.0 mm 0.00 in0.0 mm 0.07 in1.8 mm
05:13 PM 55.8°F13.2°C 42.1°F5.6°C 60% 6.5 mph W10.5 kmh W 12.8 mph20.6 kmh 29.99 in1015.6 mb 0.00 in0.0 mm 0.00 in0.0 mm 0.07 in1.8 mm
05:18 PM 55.6°F13.1°C 42.8°F6.0°C 62% 3.4 mph WNW5.5 kmh WNW 10.5 mph16.9 kmh 29.99 in1015.6 mb 0.00 in0.0 mm 0.00 in0.0 mm 0.07 in1.8 mm
05:23 PM 55.2°F12.9°C 42.4°F5.8°C 62% 3.6 mph NW5.8 kmh NW 8.5 mph13.7 kmh 29.99 in1015.6 mb 0.00 in0.0 mm 0.00 in0.0 mm 0.07 in1.8 mm
05:28 PM 54.9°F12.7°C 43.0°F6.1°C 64% 4.9 mph WSW7.9 kmh WSW 11.6 mph18.7 kmh 29.99 in1015.6 mb 0.00 in0.0 mm 0.00 in0.0 mm 0.07 in1.8 mm
05:33 PM 54.3°F12.4°C 42.8°F6.0°C 65% 6.0 mph WNW9.7 kmh WNW 10.5 mph16.9 kmh 29.99 in1015.6 mb 0.00 in0.0 mm 0.00 in0.0 mm 0.07 in1.8 mm
05:38 PM 54.1°F12.3°C 43.0°F6.1°C 66% 6.7 mph WNW10.8 kmh WNW 9.6 mph15.4 kmh 29.99 in1015.6 mb 0.00 in0.0 mm 0.00 in0.0 mm 0.07 in1.8 mm
05:43 PM 53.8°F12.1°C 43.2°F6.2°C 67% 4.5 mph W7.2 kmh W 8.5 mph13.7 kmh 29.99 in1015.6 mb 0.00 in0.0 mm 0.00 in0.0 mm 0.07 in1.8 mm
05:48 PM 53.6°F12.0°C 43.0°F6.1°C 67% 4.3 mph NW6.9 kmh NW 8.5 mph13.7 kmh 29.99 in1015.6 mb 0.00 in0.0 mm 0.00 in0.0 mm 0.07 in1.8 mm
05:53 PM 53.4°F11.9°C 43.2°F6.2°C 68% 4.0 mph W6.4 kmh W 7.4 mph11.9 kmh 29.99 in1015.6 mb 0.00 in0.0 mm 0.00 in0.0 mm 0.07 in1.8 mm
05:58 PM 53.4°F11.9°C 43.5°F6.4°C 69% 2.7 mph SW4.3 kmh SW 6.3 mph10.1 kmh 29.99 in1015.6 mb 0.00 in0.0 mm 0.00 in0.0 mm 0.07 in1.8 mm
06:03 PM 53.2°F11.8°C 43.7°F6.5°C 70% 2.2 mph W3.5 kmh W 6.3 mph10.1 kmh 29.99 in1015.6 mb 0.00 in0.0 mm 0.00 in0.0 mm 0.07 in1.8 mm
06:08 PM 53.2°F11.8°C 43.7°F6.5°C 70% 2.0 mph WNW3.2 kmh WNW 7.4 mph11.9 kmh 29.99 in1015.6 mb 0.00 in0.0 mm 0.00 in0.0 mm 0.07 in1.8 mm
06:13 PM 53.2°F11.8°C 43.7°F6.5°C 70% 3.8 mph NW6.1 kmh NW 8.5 mph13.7 kmh 29.99 in1015.6 mb 0.00 in0.0 mm 0.00 in0.0 mm 0.07 in1.8 mm
06:18 PM 53.1°F11.7°C 43.5°F6.4°C 70% 2.7 mph SW4.3 kmh SW 6.3 mph10.1 kmh 30.00 in1015.9 mb 0.00 in0.0 mm 0.00 in0.0 mm 0.07 in1.8 mm
06:23 PM 53.1°F11.7°C 43.9°F6.6°C 71% 1.3 mph W2.1 kmh W 5.4 mph8.7 kmh 30.00 in1015.9 mb 0.00 in0.0 mm 0.00 in0.0 mm 0.07 in1.8 mm
06:28 PM 53.1°F11.7°C 43.9°F6.6°C 71% 1.6 mph NW2.6 kmh NW 3.1 mph5.0 kmh 30.00 in1015.9 mb 0.00 in0.0 mm 0.00 in0.0 mm 0.07 in1.8 mm
06:33 PM 52.9°F11.6°C 43.7°F6.5°C 71% 2.0 mph NW3.2 kmh NW 5.4 mph8.7 kmh 30.00 in1015.9 mb 0.00 in0.0 mm 0.00 in0.0 mm 0.07 in1.8 mm
06:38 PM 52.9°F11.6°C 44.1°F6.7°C 72% 3.1 mph NW5.0 kmh NW 6.3 mph10.1 kmh 30.00 in1015.9 mb 0.00 in0.0 mm 0.00 in0.0 mm 0.07 in1.8 mm
06:43 PM 52.9°F11.6°C 44.1°F6.7°C 72% 2.2 mph W3.5 kmh W 9.6 mph15.4 kmh 30.00 in1015.9 mb 0.00 in0.0 mm 0.00 in0.0 mm 0.07 in1.8 mm
06:48 PM 52.9°F11.6°C 44.1°F6.7°C 72% 3.4 mph NW5.5 kmh NW 6.3 mph10.1 kmh 30.01 in1016.3 mb 0.00 in0.0 mm 0.00 in0.0 mm 0.07 in1.8 mm
06:53 PM 52.9°F11.6°C 44.1°F6.7°C 72% 4.5 mph NW7.2 kmh NW 8.5 mph13.7 kmh 30.01 in1016.3 mb 0.00 in0.0 mm 0.00 in0.0 mm 0.07 in1.8 mm
06:58 PM 52.7°F11.5°C 43.9°F6.6°C 72% 2.7 mph WNW4.3 kmh WNW 7.4 mph11.9 kmh 30.01 in1016.3 mb 0.00 in0.0 mm 0.00 in0.0 mm 0.07 in1.8 mm
07:03 PM 52.5°F11.4°C 43.7°F6.5°C 72% 1.8 mph NW2.9 kmh NW 7.4 mph11.9 kmh 30.01 in1016.3 mb 0.00 in0.0 mm 0.00 in0.0 mm 0.07 in1.8 mm
07:08 PM 52.5°F11.4°C 43.7°F6.5°C 72% 1.8 mph NW2.9 kmh NW 4.3 mph6.9 kmh 30.01 in1016.3 mb 0.00 in0.0 mm 0.00 in0.0 mm 0.07 in1.8 mm
07:13 PM 52.5°F11.4°C 43.7°F6.5°C 72% 0.7 mph NW1.1 kmh NW 3.1 mph5.0 kmh 30.01 in1016.3 mb 0.00 in0.0 mm 0.00 in0.0 mm 0.07 in1.8 mm
07:18 PM 52.5°F11.4°C 44.1°F6.7°C 73% 2.9 mph NW4.7 kmh NW 7.4 mph11.9 kmh 30.01 in1016.3 mb 0.00 in0.0 mm 0.00 in0.0 mm 0.07 in1.8 mm
07:23 PM 52.5°F11.4°C 44.1°F6.7°C 73% 2.2 mph NW3.5 kmh NW 6.3 mph10.1 kmh 30.01 in1016.3 mb 0.00 in0.0 mm 0.00 in0.0 mm 0.07 in1.8 mm
07:28 PM 52.3°F11.3°C 43.9°F6.6°C 73% 1.3 mph NW2.1 kmh NW 4.3 mph6.9 kmh 30.01 in1016.3 mb 0.00 in0.0 mm 0.00 in0.0 mm 0.07 in1.8 mm
07:33 PM 52.3°F11.3°C 43.5°F6.4°C 72% 2.5 mph NW4.0 kmh NW 4.3 mph6.9 kmh 30.01 in1016.3 mb 0.00 in0.0 mm 0.00 in0.0 mm 0.07 in1.8 mm
07:38 PM 52.3°F11.3°C 43.2°F6.2°C 71% 4.3 mph NW6.9 kmh NW 7.4 mph11.9 kmh 30.01 in1016.3 mb 0.00 in0.0 mm 0.00 in0.0 mm 0.07 in1.8 mm
07:43 PM 52.3°F11.3°C 43.2°F6.2°C 71% 3.4 mph NW5.5 kmh NW 6.3 mph10.1 kmh 30.01 in1016.3 mb 0.00 in0.0 mm 0.00 in0.0 mm 0.07 in1.8 mm
07:48 PM 52.2°F11.2°C 42.6°F5.9°C 70% 1.8 mph SSW2.9 kmh SSW 5.4 mph8.7 kmh 30.01 in1016.3 mb 0.00 in0.0 mm 0.00 in0.0 mm 0.07 in1.8 mm
07:53 PM 52.2°F11.2°C 42.6°F5.9°C 70% 3.1 mph NW5.0 kmh NW 5.4 mph8.7 kmh 30.01 in1016.3 mb 0.00 in0.0 mm 0.00 in0.0 mm 0.07 in1.8 mm
07:58 PM 52.2°F11.2°C 42.6°F5.9°C 70% 1.6 mph NW2.6 kmh NW 3.1 mph5.0 kmh 30.01 in1016.3 mb 0.00 in0.0 mm 0.00 in0.0 mm 0.07 in1.8 mm
08:03 PM 52.0°F11.1°C 42.4°F5.8°C 70% 0.4 mph W0.6 kmh W 2.0 mph3.2 kmh 30.01 in1016.3 mb 0.00 in0.0 mm 0.00 in0.0 mm 0.07 in1.8 mm
08:08 PM 51.8°F11.0°C 42.3°F5.7°C 70% 0.9 mph WSW1.4 kmh WSW 4.3 mph6.9 kmh 30.01 in1016.3 mb 0.00 in0.0 mm 0.00 in0.0 mm 0.07 in1.8 mm
08:13 PM 51.8°F11.0°C 42.3°F5.7°C 70% 1.3 mph NW2.1 kmh NW 2.0 mph3.2 kmh 30.01 in1016.3 mb 0.00 in0.0 mm 0.00 in0.0 mm 0.07 in1.8 mm
08:18 PM 51.8°F11.0°C 42.3°F5.7°C 70% 0.7 mph W1.1 kmh W 4.3 mph6.9 kmh 30.01 in1016.3 mb 0.00 in0.0 mm 0.00 in0.0 mm 0.07 in1.8 mm
08:23 PM 52.0°F11.1°C 42.4°F5.8°C 70% Calm Calm 4.3 mph6.9 kmh 30.01 in1016.3 mb 0.00 in0.0 mm 0.00 in0.0 mm 0.07 in1.8 mm
08:28 PM 52.0°F11.1°C 42.4°F5.8°C 70% 1.1 mph NW1.8 kmh NW 5.4 mph8.7 kmh 30.01 in1016.3 mb 0.00 in0.0 mm 0.00 in0.0 mm 0.07 in1.8 mm
08:33 PM 52.0°F11.1°C 42.4°F5.8°C 70% Calm Calm -- 30.01 in1016.3 mb 0.00 in0.0 mm 0.00 in0.0 mm 0.07 in1.8 mm
08:38 PM 52.0°F11.1°C 42.4°F5.8°C 70% 1.8 mph W2.9 kmh W 5.4 mph8.7 kmh 30.01 in1016.3 mb 0.00 in0.0 mm 0.00 in0.0 mm 0.07 in1.8 mm
08:43 PM 52.0°F11.1°C 42.4°F5.8°C 70% 2.2 mph WNW3.5 kmh WNW 4.3 mph6.9 kmh 30.01 in1016.3 mb 0.00 in0.0 mm 0.00 in0.0 mm 0.07 in1.8 mm
08:48 PM 52.0°F11.1°C 42.4°F5.8°C 70% 0.9 mph NW1.4 kmh NW 4.3 mph6.9 kmh 30.01 in1016.3 mb 0.00 in0.0 mm 0.00 in0.0 mm 0.07 in1.8 mm
08:53 PM 52.0°F11.1°C 42.4°F5.8°C 70% Calm Calm 4.3 mph6.9 kmh 30.01 in1016.3 mb 0.00 in0.0 mm 0.00 in0.0 mm 0.07 in1.8 mm
08:58 PM 52.0°F11.1°C 42.4°F5.8°C 70% 1.1 mph NW1.8 kmh NW 3.1 mph5.0 kmh 30.01 in1016.3 mb 0.00 in0.0 mm 0.00 in0.0 mm 0.07 in1.8 mm
09:03 PM 51.8°F11.0°C 42.3°F5.7°C 70% 1.1 mph WSW1.8 kmh WSW 3.1 mph5.0 kmh 30.01 in1016.3 mb 0.00 in0.0 mm 0.00 in0.0 mm 0.07 in1.8 mm
09:08 PM 51.6°F10.9°C 42.4°F5.8°C 71% Calm Calm 2.0 mph3.2 kmh 30.01 in1016.3 mb 0.00 in0.0 mm 0.00 in0.0 mm 0.07 in1.8 mm
09:13 PM 51.6°F10.9°C 42.4°F5.8°C 71% 0.4 mph NW0.6 kmh NW 2.0 mph3.2 kmh 30.01 in1016.3 mb 0.00 in0.0 mm 0.00 in0.0 mm 0.07 in1.8 mm
09:18 PM 51.4°F10.8°C 42.4°F5.8°C 71% 0.4 mph WNW0.6 kmh WNW 1.1 mph1.8 kmh 30.01 in1016.3 mb 0.00 in0.0 mm 0.00 in0.0 mm 0.07 in1.8 mm
09:23 PM 51.4°F10.8°C 42.8°F6.0°C 72% Calm Calm 2.0 mph3.2 kmh 30.01 in1016.3 mb 0.00 in0.0 mm 0.00 in0.0 mm 0.07 in1.8 mm
09:28 PM 51.3°F10.7°C 42.6°F5.9°C 72% Calm Calm 1.1 mph1.8 kmh 30.01 in1016.3 mb 0.00 in0.0 mm 0.00 in0.0 mm 0.07 in1.8 mm
09:33 PM 51.1°F10.6°C 42.4°F5.8°C 72% Calm Calm 1.1 mph1.8 kmh 30.01 in1016.3 mb 0.00 in0.0 mm 0.00 in0.0 mm 0.07 in1.8 mm
09:38 PM 50.9°F10.5°C 42.6°F5.9°C 73% Calm Calm 1.1 mph1.8 kmh 30.01 in1016.3 mb 0.00 in0.0 mm 0.00 in0.0 mm 0.07 in1.8 mm
09:43 PM 50.5°F10.3°C 42.3°F5.7°C 73% Calm Calm -- 30.01 in1016.3 mb 0.00 in0.0 mm 0.00 in0.0 mm 0.07 in1.8 mm
09:48 PM 50.4°F10.2°C 42.1°F5.6°C 73% Calm Calm -- 30.01 in1016.3 mb 0.00 in0.0 mm 0.00 in0.0 mm 0.07 in1.8 mm
09:53 PM 49.8°F9.9°C 41.9°F5.5°C 74% Calm Calm -- 30.01 in1016.3 mb 0.00 in0.0 mm 0.00 in0.0 mm 0.07 in1.8 mm
09:58 PM 49.5°F9.7°C 41.9°F5.5°C 75% Calm Calm -- 30.01 in1016.3 mb 0.00 in0.0 mm 0.00 in0.0 mm 0.07 in1.8 mm
10:03 PM 49.3°F9.6°C 42.1°F5.6°C 76% Calm Calm -- 30.01 in1016.3 mb 0.00 in0.0 mm 0.00 in0.0 mm 0.07 in1.8 mm
10:08 PM 48.9°F9.4°C 42.1°F5.6°C 77% Calm Calm -- 30.01 in1016.3 mb 0.00 in0.0 mm 0.00 in0.0 mm 0.07 in1.8 mm
10:13 PM 48.9°F9.4°C 42.1°F5.6°C 77% Calm Calm -- 30.01 in1016.3 mb 0.00 in0.0 mm 0.00 in0.0 mm 0.07 in1.8 mm
10:18 PM 48.7°F9.3°C 41.9°F5.5°C 77% Calm Calm -- 30.02 in1016.6 mb 0.00 in0.0 mm 0.00 in0.0 mm 0.07 in1.8 mm
10:23 PM 48.4°F9.1°C 41.9°F5.5°C 78% Calm Calm -- 30.02 in1016.6 mb 0.00 in0.0 mm 0.00 in0.0 mm 0.07 in1.8 mm
10:28 PM 48.4°F9.1°C 42.3°F5.7°C 79% Calm Calm -- 30.02 in1016.6 mb 0.00 in0.0 mm 0.00 in0.0 mm 0.07 in1.8 mm
10:33 PM 48.4°F9.1°C 42.3°F5.7°C 79% Calm Calm -- 30.02 in1016.6 mb 0.00 in0.0 mm 0.00 in0.0 mm 0.07 in1.8 mm
10:38 PM 47.8°F8.8°C 41.7°F5.4°C 79% Calm Calm -- 30.02 in1016.6 mb 0.00 in0.0 mm 0.00 in0.0 mm 0.07 in1.8 mm
10:43 PM 47.8°F8.8°C 42.3°F5.7°C 81% Calm Calm -- 30.02 in1016.6 mb 0.00 in0.0 mm 0.00 in0.0 mm 0.07 in1.8 mm
10:48 PM 47.7°F8.7°C 42.4°F5.8°C 82% Calm Calm -- 30.02 in1016.6 mb 0.00 in0.0 mm 0.00 in0.0 mm 0.07 in1.8 mm
10:53 PM 47.7°F8.7°C 42.4°F5.8°C 82% Calm Calm -- 30.02 in1016.6 mb 0.00 in0.0 mm 0.00 in0.0 mm 0.07 in1.8 mm
10:58 PM 47.5°F8.6°C 42.3°F5.7°C 82% Calm Calm -- 30.02 in1016.6 mb 0.00 in0.0 mm 0.00 in0.0 mm 0.07 in1.8 mm
11:03 PM 47.5°F8.6°C 42.3°F5.7°C 82% Calm Calm -- 30.02 in1016.6 mb 0.00 in0.0 mm 0.00 in0.0 mm 0.07 in1.8 mm
11:08 PM 47.5°F8.6°C 42.6°F5.9°C 83% Calm Calm -- 30.02 in1016.6 mb 0.00 in0.0 mm 0.00 in0.0 mm 0.07 in1.8 mm
11:13 PM 47.7°F8.7°C 42.8°F6.0°C 83% Calm Calm -- 30.02 in1016.6 mb 0.00 in0.0 mm 0.00 in0.0 mm 0.07 in1.8 mm
11:18 PM 47.8°F8.8°C 43.0°F6.1°C 83% Calm Calm -- 30.02 in1016.6 mb 0.00 in0.0 mm 0.00 in0.0 mm 0.07 in1.8 mm
11:23 PM 47.8°F8.8°C 43.0°F6.1°C 83% Calm Calm -- 30.02 in1016.6 mb 0.00 in0.0 mm 0.00 in0.0 mm 0.07 in1.8 mm
11:28 PM 48.0°F8.9°C 43.2°F6.2°C 83% Calm Calm 1.1 mph1.8 kmh 30.02 in1016.6 mb 0.00 in0.0 mm 0.00 in0.0 mm 0.07 in1.8 mm
11:33 PM 48.7°F9.3°C 43.5°F6.4°C 82% Calm Calm 1.1 mph1.8 kmh 30.02 in1016.6 mb 0.00 in0.0 mm 0.00 in0.0 mm 0.07 in1.8 mm
11:38 PM 48.7°F9.3°C 43.2°F6.2°C 81% Calm Calm -- 30.02 in1016.6 mb 0.00 in0.0 mm 0.00 in0.0 mm 0.07 in1.8 mm
11:43 PM 48.7°F9.3°C 43.5°F6.4°C 82% Calm Calm -- 30.02 in1016.6 mb 0.00 in0.0 mm 0.00 in0.0 mm 0.07 in1.8 mm
11:48 PM 48.4°F9.1°C 43.2°F6.2°C 82% Calm Calm 1.1 mph1.8 kmh 30.01 in1016.3 mb 0.00 in0.0 mm 0.00 in0.0 mm 0.07 in1.8 mm
11:53 PM 48.0°F8.9°C 43.2°F6.2°C 83% Calm Calm -- 30.01 in1016.3 mb 0.00 in0.0 mm 0.00 in0.0 mm 0.07 in1.8 mm
11:58 PM 47.8°F8.8°C 43.0°F6.1°C 83% Calm Calm -- 30.02 in1016.6 mb 0.00 in0.0 mm 0.00 in0.0 mm 0.07 in1.8 mm